Time;durP1;ratioP1;P1;durP2;ratioP2;P2;SDS_P1;SDS_P2;PMS_P1;PMS_P2;Temp;Humidity;BMP_temperature;BMP_pressure;BME280_temperature;BME280_humidity;BME280_pressure;Samples;Min_cycle;Max_cycle;Signal;HPM_P1;HPM_P2
2023/10/30 00:01:23;;;;;;;;;0.00;0.00;;;;;19.62;55.71;98640.22;5079503;27;45837;-72
2023/10/30 00:03:50;;;;;;;;;1.00;0.67;;;;;19.65;55.53;98646.25;5079308;27;45496;-72
2023/10/30 00:06:15;;;;;;;;;1.00;1.00;;;;;19.64;55.56;98639.22;5080070;27;45508;-72
2023/10/30 00:08:41;;;;;;;;;1.00;1.00;;;;;19.66;54.92;98634.75;5079863;27;45570;-83
2023/10/30 00:11:07;;;;;;;;;0.33;0.00;;;;;19.59;55.08;98620.00;5079605;27;46106;-72
2023/10/30 00:13:32;;;;;;;;;0.67;0.67;;;;;19.71;54.82;98629.28;5079561;28;45425;-72
2023/10/30 00:15:58;;;;;;;;;0.67;0.33;;;;;19.47;55.06;98584.22;5079706;27;45347;-72
2023/10/30 00:18:24;;;;;;;;;1.00;1.00;;;;;19.76;54.46;98624.69;5079627;27;45307;-72
2023/10/30 00:20:49;;;;;;;;;0.33;0.33;;;;;19.75;54.66;98627.41;5079311;27;45499;-72
2023/10/30 00:23:15;;;;;;;;;0.67;0.67;;;;;19.74;54.61;98615.09;5079571;27;45457;-72
2023/10/30 00:25:40;;;;;;;;;1.33;1.00;;;;;19.76;54.45;98613.25;5079373;27;45364;-72
2023/10/30 00:28:06;;;;;;;;;1.00;0.67;;;;;19.54;54.37;98584.88;5079682;28;45235;-72
2023/10/30 00:30:32;;;;;;;;;0.67;0.67;;;;;19.84;54.19;98635.84;5079255;27;45310;-72
2023/10/30 00:32:57;;;;;;;;;0.67;0.67;;;;;19.83;54.29;98635.91;5079170;27;45547;-72
2023/10/30 00:35:23;;;;;;;;;0.00;0.00;;;;;19.85;54.28;98626.13;5079078;27;45494;-72
2023/10/30 00:37:49;;;;;;;;;1.33;0.67;;;;;19.85;54.48;98623.47;5079817;27;45504;-72
2023/10/30 00:40:15;;;;;;;;;0.33;0.33;;;;;19.86;54.69;98606.66;5079315;27;45743;-72
2023/10/30 00:42:40;;;;;;;;;0.33;0.33;;;;;19.88;54.44;98612.75;5079181;27;45282;-72
2023/10/30 00:45:06;;;;;;;;;0.33;0.33;;;;;19.89;54.35;98603.03;5079224;28;45520;-72
2023/10/30 00:47:34;;;;;;;;;1.00;0.67;;;;;19.92;54.45;98606.41;5079306;27;45395;-72
2023/10/30 00:50:00;;;;;;;;;0.67;0.67;;;;;19.90;54.20;98602.09;5078906;27;46285;-72
2023/10/30 00:52:25;;;;;;;;;1.33;0.33;;;;;19.92;54.08;98602.91;5078001;27;45353;-72
2023/10/30 00:54:51;;;;;;;;;0.67;0.67;;;;;19.94;54.28;98596.63;5078958;28;45556;-72
2023/10/30 00:57:16;;;;;;;;;0.67;0.67;;;;;19.92;54.43;98589.66;5079388;28;45447;-72
2023/10/30 00:59:42;;;;;;;;;0.33;0.33;;;;;19.90;54.65;98589.72;5078551;27;45601;-72
2023/10/30 01:02:07;;;;;;;;;1.00;1.00;;;;;19.75;54.63;98567.31;5078681;27;45433;-73
2023/10/30 01:04:33;;;;;;;;;0.67;0.67;;;;;19.88;54.99;98580.09;5078929;27;45420;-72
2023/10/30 01:06:59;;;;;;;;;0.67;0.67;;;;;19.87;54.77;98579.22;5079086;27;45394;-72
2023/10/30 01:09:24;;;;;;;;;2.00;1.00;;;;;19.91;54.54;98574.66;5078460;28;46157;-72
2023/10/30 01:11:50;;;;;;;;;1.67;0.67;;;;;19.88;55.06;98574.81;5079017;28;45390;-72
2023/10/30 01:14:15;;;;;;;;;1.67;1.33;;;;;19.66;55.19;98528.78;5078782;27;45305;-72
2023/10/30 01:16:41;;;;;;;;;0.67;0.67;;;;;19.75;55.26;98558.50;5078858;28;45218;-72
2023/10/30 01:19:07;;;;;;;;;1.00;1.00;;;;;19.83;54.83;98567.03;5078430;27;45854;-72
2023/10/30 01:21:33;;;;;;;;;0.67;0.67;;;;;19.85;54.17;98562.53;5078461;27;45449;-72
2023/10/30 01:23:59;;;;;;;;;0.67;0.67;;;;;19.76;54.80;98533.75;5077213;28;45408;-72
2023/10/30 01:26:25;;;;;;;;;1.33;1.00;;;;;19.88;54.74;98567.72;5077232;28;45461;-72
2023/10/30 01:28:50;;;;;;;;;1.00;0.67;;;;;19.91;54.28;98575.53;5078402;27;46240;-72
2023/10/30 01:31:16;;;;;;;;;0.67;0.67;;;;;19.82;54.14;98560.00;5078138;28;45315;-74
2023/10/30 01:33:41;;;;;;;;;1.00;0.67;;;;;19.76;54.23;98544.38;5078540;27;45444;-72
2023/10/30 01:36:07;;;;;;;;;0.67;0.67;;;;;19.95;54.00;98590.38;5078645;27;45409;-72
2023/10/30 01:38:33;;;;;;;;;1.33;0.67;;;;;19.98;53.48;98563.78;5077972;27;45945;-72
2023/10/30 01:40:59;;;;;;;;;0.67;0.67;;;;;19.98;53.69;98562.91;5078195;27;45393;-72
2023/10/30 01:43:29;;;;;;;;;0.67;0.67;;;;;20.03;53.73;98563.56;5077954;27;45291;-72
2023/10/30 01:45:55;;;;;;;;;0.67;0.67;;;;;19.84;53.72;98540.47;5078415;27;45342;-72
2023/10/30 01:48:20;;;;;;;;;2.00;1.00;;;;;20.05;53.01;98562.59;5093867;27;45387;-72
2023/10/30 01:50:48;;;;;;;;;1.00;1.00;;;;;20.04;53.17;98560.88;5078021;27;45412;-72
2023/10/30 01:53:21;;;;;;;;;1.00;1.00;;;;;19.88;52.68;98524.47;5077900;27;45459;-73
2023/10/30 01:55:48;;;;;;;;;0.00;0.00;;;;;20.17;52.70;98555.06;5077922;27;45453;-72
2023/10/30 01:58:14;;;;;;;;;1.67;1.67;;;;;20.19;52.90;98553.22;5077700;27;45408;-72
2023/10/30 02:00:41;;;;;;;;;0.67;0.67;;;;;20.19;52.48;98537.31;5077979;27;45456;-83
2023/10/30 02:03:07;;;;;;;;;3.33;2.67;;;;;20.16;52.53;98538.31;5077858;27;45231;-72
2023/10/30 02:05:33;;;;;;;;;3.00;2.00;;;;;20.21;52.91;98535.44;5077773;27;45547;-72
2023/10/30 02:07:59;;;;;;;;;2.00;0.67;;;;;20.20;52.71;98533.75;5077677;27;46174;-72
2023/10/30 02:10:24;;;;;;;;;1.00;1.00;;;;;20.17;52.99;98525.91;5077886;27;45647;-72
2023/10/30 02:12:50;;;;;;;;;2.00;1.67;;;;;20.21;52.75;98522.19;5077919;27;45417;-72
2023/10/30 02:15:16;;;;;;;;;0.67;0.67;;;;;20.23;52.41;98513.28;5077766;27;45426;-72
2023/10/30 02:17:43;;;;;;;;;1.00;1.00;;;;;20.14;52.29;98488.94;5077415;28;45304;-72
2023/10/30 02:20:09;;;;;;;;;2.00;1.00;;;;;20.25;52.78;98510.53;5077331;27;45454;-72
2023/10/30 02:22:34;;;;;;;;;0.67;0.67;;;;;20.29;52.49;98501.53;5077587;27;45289;-72
2023/10/30 02:25:00;;;;;;;;;1.00;1.00;;;;;20.30;51.91;98503.25;5077783;28;45420;-71
2023/10/30 02:27:25;;;;;;;;;0.67;0.67;;;;;20.28;52.67;98507.78;5077244;27;45398;-72
2023/10/30 02:29:51;;;;;;;;;0.67;0.67;;;;;20.31;51.98;98499.66;5077697;27;45449;-72
2023/10/30 02:32:17;;;;;;;;;0.00;0.00;;;;;20.35;51.87;98490.69;5077503;28;45328;-72
2023/10/30 02:34:42;;;;;;;;;0.67;0.67;;;;;20.37;51.90;98506.50;5077703;27;45472;-72
2023/10/30 02:37:08;;;;;;;;;0.67;0.67;;;;;20.39;52.17;98502.00;5077191;27;45464;-72
2023/10/30 02:39:34;;;;;;;;;0.67;0.67;;;;;20.36;52.12;98518.91;5076977;27;45303;-72
2023/10/30 02:42:01;;;;;;;;;2.33;2.00;;;;;20.17;53.07;98508.19;5077248;27;45491;-72
2023/10/30 02:44:28;;;;;;;;;3.67;2.33;;;;;20.25;52.66;98527.31;5077293;27;45579;-72
2023/10/30 02:46:55;;;;;;;;;3.67;2.67;;;;;20.24;53.20;98535.34;5077299;27;45311;-72
2023/10/30 02:49:21;;;;;;;;;2.00;2.00;;;;;20.17;53.04;98549.75;5077177;27;45300;-72
2023/10/30 02:51:46;;;;;;;;;2.00;1.67;;;;;20.18;53.50;98557.66;5077257;27;45370;-72
2023/10/30 02:54:12;;;;;;;;;1.00;1.00;;;;;20.18;53.84;98557.66;5077285;28;45320;-72
2023/10/30 02:56:37;;;;;;;;;1.00;1.00;;;;;20.17;53.93;98571.81;5075500;28;45535;-73
2023/10/30 02:59:03;;;;;;;;;1.67;1.67;;;;;20.14;54.15;98587.00;5076910;28;45389;-72
2023/10/30 03:01:29;;;;;;;;;0.67;0.67;;;;;20.14;54.65;98587.88;5077175;27;45445;-73
2023/10/30 03:03:55;;;;;;;;;3.33;2.00;;;;;20.08;56.44;98611.13;5077742;27;45551;-73
2023/10/30 03:06:20;;;;;;;;;3.00;3.00;;;;;20.02;56.83;98617.53;5077048;27;45491;-73
2023/10/30 03:08:46;;;;;;;;;3.00;3.00;;;;;19.84;57.94;98625.25;5076638;27;45368;-73
2023/10/30 03:11:13;;;;;;;;;5.33;5.00;;;;;19.74;58.47;98631.84;5076990;27;45593;-73
2023/10/30 03:13:39;;;;;;;;;4.00;3.67;;;;;19.68;59.30;98632.03;5077102;27;45437;-73
2023/10/30 03:16:05;;;;;;;;;5.33;5.33;;;;;19.50;59.50;98607.09;5077911;27;46159;-72
2023/10/30 03:18:31;;;;;;;;;5.00;5.00;;;;;19.55;61.23;98625.47;5080175;27;45409;-73
2023/10/30 03:20:56;;;;;;;;;4.33;4.33;;;;;19.45;61.53;98633.75;5080580;28;45323;-73
2023/10/30 03:23:22;;;;;;;;;6.00;5.00;;;;;19.37;60.58;98619.06;5080415;27;45232;-72
2023/10/30 03:25:47;;;;;;;;;2.00;2.00;;;;;19.40;61.25;98626.91;5078725;28;45512;-73
2023/10/30 03:28:13;;;;;;;;;6.33;5.67;;;;;19.36;62.12;98619.97;5080053;27;45393;-73
2023/10/30 03:30:38;;;;;;;;;4.00;3.00;;;;;19.34;61.34;98605.94;5080218;27;45456;-73
2023/10/30 03:33:04;;;;;;;;;4.00;4.00;;;;;19.27;61.95;98584.97;5080551;27;45414;-73
2023/10/30 03:35:31;;;;;;;;;2.00;2.00;;;;;19.12;61.47;98529.09;5080166;27;45940;-73
2023/10/30 03:37:56;;;;;;;;;2.00;2.00;;;;;19.27;61.91;98557.66;5080379;27;45587;-72
2023/10/30 03:40:22;;;;;;;;;2.00;2.00;;;;;19.23;61.71;98556.91;5080040;27;45523;-73
2023/10/30 03:42:47;;;;;;;;;2.67;2.00;;;;;19.18;61.72;98542.09;5080232;27;45231;-72
2023/10/30 03:45:13;;;;;;;;;1.00;1.00;;;;;19.12;61.62;98544.97;5079759;27;46014;-72
2023/10/30 03:47:40;;;;;;;;;1.00;1.00;;;;;19.10;61.50;98531.81;5079930;27;45248;-72
2023/10/30 03:50:08;;;;;;;;;1.00;1.00;;;;;19.07;61.51;98535.44;5079944;27;45468;-72
2023/10/30 03:52:33;;;;;;;;;1.00;1.00;;;;;18.99;62.05;98528.69;5080075;27;45407;-73
2023/10/30 03:55:03;;;;;;;;;1.00;0.67;;;;;18.96;61.80;98515.56;5079810;27;45437;-72
2023/10/30 03:57:29;;;;;;;;;0.33;0.00;;;;;18.90;62.08;98518.44;5079985;27;45243;-73
2023/10/30 03:59:55;;;;;;;;;1.00;0.67;;;;;18.83;62.34;98526.59;5079748;27;45483;-72
2023/10/30 04:02:21;;;;;;;;;1.00;1.00;;;;;18.51;63.22;98487.19;5079932;27;45567;-72
2023/10/30 04:04:47;;;;;;;;;1.33;1.33;;;;;18.57;63.76;98508.97;5079635;27;46095;-72
2023/10/30 04:07:12;;;;;;;;;1.00;1.00;;;;;18.57;63.67;98502.84;5079519;28;45404;-73
2023/10/30 04:09:38;;;;;;;;;2.00;2.00;;;;;18.36;64.21;98497.38;5079570;27;45516;-72
2023/10/30 04:12:04;;;;;;;;;0.00;0.00;;;;;18.31;64.47;98507.25;5079747;27;45560;-72
2023/10/30 04:14:30;;;;;;;;;2.00;1.00;;;;;18.18;64.41;98522.63;5079957;28;45424;-72
2023/10/30 04:16:57;;;;;;;;;1.00;1.00;;;;;18.22;64.88;98524.28;5079241;27;45491;-72
2023/10/30 04:19:22;;;;;;;;;1.00;1.00;;;;;18.33;64.65;98534.50;5079304;27;45426;-72
2023/10/30 04:21:48;;;;;;;;;1.00;1.00;;;;;18.09;64.52;98486.84;5079373;27;45475;-73
2023/10/30 04:24:14;;;;;;;;;1.00;1.00;;;;;18.13;64.32;98490.25;5078157;27;45891;-73
2023/10/30 04:26:39;;;;;;;;;1.00;1.00;;;;;18.31;64.38;98522.25;5078539;27;45327;-79
2023/10/30 04:29:05;;;;;;;;;0.00;0.00;;;;;18.15;64.82;98516.63;5078130;27;45279;-73
2023/10/30 04:31:30;;;;;;;;;0.00;0.00;;;;;18.24;65.01;98529.50;5079368;28;45223;-72
2023/10/30 04:33:56;;;;;;;;;0.00;0.00;;;;;18.18;65.37;98543.78;5077146;27;46101;-72
2023/10/30 04:36:22;;;;;;;;;0.00;0.00;;;;;18.17;65.34;98542.06;5078889;27;45476;-72
2023/10/30 04:38:49;;;;;;;;;0.00;0.00;;;;;18.23;64.74;98541.00;5078413;27;45509;-79
2023/10/30 04:41:15;;;;;;;;;1.00;0.00;;;;;18.25;65.09;98542.69;5078977;27;45421;-81
2023/10/30 04:43:41;;;;;;;;;0.00;0.00;;;;;18.27;64.38;98543.50;5078444;27;45476;-83
2023/10/30 04:46:07;;;;;;;;;0.00;0.00;;;;;18.35;64.29;98550.31;5078994;27;45356;-73
2023/10/30 04:48:33;;;;;;;;;0.00;0.00;;;;;18.34;65.03;98553.84;5079197;27;45417;-72
2023/10/30 04:50:59;;;;;;;;;0.00;0.00;;;;;18.30;65.15;98568.94;5079488;28;45420;-74
2023/10/30 04:53:25;;;;;;;;;0.00;0.00;;;;;18.38;65.28;98571.34;5078998;27;46646;-72
2023/10/30 04:55:51;;;;;;;;;0.00;0.00;;;;;18.41;65.91;98566.81;5078884;28;45293;-72
2023/10/30 04:58:17;;;;;;;;;0.67;0.00;;;;;18.40;65.66;98570.41;5078895;28;45535;-72
2023/10/30 05:00:43;;;;;;;;;0.00;0.00;;;;;18.42;65.86;98572.97;5079024;27;45429;-72
2023/10/30 05:03:09;;;;;;;;;0.00;0.00;;;;;18.26;65.74;98554.09;5078593;27;46120;-72
2023/10/30 05:05:36;;;;;;;;;0.00;0.00;;;;;18.37;65.02;98575.78;5078490;28;45426;-72
2023/10/30 05:08:02;;;;;;;;;0.00;0.00;;;;;18.48;64.89;98594.78;5079099;28;45433;-72
2023/10/30 05:10:28;;;;;;;;;0.00;0.00;;;;;18.45;64.89;98586.94;5078912;27;45400;-72
2023/10/30 05:12:53;;;;;;;;;0.00;0.00;;;;;18.52;65.23;98599.97;5078681;28;45549;-72
2023/10/30 05:15:21;;;;;;;;;0.00;0.00;;;;;18.44;64.76;98594.91;5078707;28;45394;-73
2023/10/30 05:17:47;;;;;;;;;0.00;0.00;;;;;18.54;64.74;98619.28;5078759;27;45298;-72
2023/10/30 05:20:12;;;;;;;;;0.00;0.00;;;;;18.57;64.79;98619.19;5078952;28;45396;-72
2023/10/30 05:22:39;;;;;;;;;0.00;0.00;;;;;18.53;65.20;98626.34;5078550;27;45369;-71
2023/10/30 05:25:08;;;;;;;;;0.00;0.00;;;;;18.44;65.60;98627.53;5078769;27;45445;-71
2023/10/30 05:27:33;;;;;;;;;0.00;0.00;;;;;18.52;64.57;98621.97;5078844;27;45366;-72
2023/10/30 05:29:59;;;;;;;;;0.00;0.00;;;;;18.49;64.30;98622.94;5078634;27;45603;-72
2023/10/30 05:32:25;;;;;;;;;0.00;0.00;;;;;18.51;64.00;98619.41;5078186;27;46018;-72
2023/10/30 05:34:55;;;;;;;;;0.00;0.00;;;;;18.49;64.11;98628.22;5078324;27;45357;-72
2023/10/30 05:37:21;;;;;;;;;0.00;0.00;;;;;18.51;63.97;98629.97;5078348;27;45515;-72
2023/10/30 05:39:48;;;;;;;;;0.00;0.00;;;;;18.52;64.02;98640.47;5078016;27;45256;-72
2023/10/30 05:42:14;;;;;;;;;0.00;0.00;;;;;18.53;64.32;98641.38;5077930;27;45410;-72
2023/10/30 05:44:40;;;;;;;;;0.00;0.00;;;;;18.56;64.37;98641.25;5078046;27;45320;-72
2023/10/30 05:47:05;;;;;;;;;0.00;0.00;;;;;18.56;63.82;98636.84;5078540;27;45351;-72
2023/10/30 05:49:31;;;;;;;;;0.00;0.00;;;;;18.53;63.68;98639.56;5078169;27;45504;-72
2023/10/30 05:51:57;;;;;;;;;0.00;0.00;;;;;18.53;63.37;98638.72;5077956;28;45229;-72
2023/10/30 05:54:22;;;;;;;;;0.00;0.00;;;;;18.56;63.84;98633.31;5077838;28;45451;-72
2023/10/30 05:56:49;;;;;;;;;0.00;0.00;;;;;18.59;63.26;98638.50;5078022;27;45464;-72
2023/10/30 05:59:15;;;;;;;;;0.00;0.00;;;;;18.47;63.25;98619.47;5077978;27;45541;-72
2023/10/30 06:01:41;;;;;;;;;0.00;0.00;;;;;18.63;63.72;98653.34;5077030;27;45668;-81
2023/10/30 06:04:07;;;;;;;;;0.00;0.00;;;;;18.65;62.78;98652.38;5077629;27;45405;-72
2023/10/30 06:06:33;;;;;;;;;0.00;0.00;;;;;18.53;63.21;98638.72;5077995;27;45487;-83
2023/10/30 06:08:58;;;;;;;;;0.00;0.00;;;;;18.67;63.54;98662.91;5077838;27;45436;-83
2023/10/30 06:11:24;;;;;;;;;0.00;0.00;;;;;18.67;63.24;98657.63;5077624;28;45892;-83
2023/10/30 06:13:50;;;;;;;;;0.00;0.00;;;;;18.55;63.15;98643.03;5077253;27;45512;-80
2023/10/30 06:16:20;;;;;;;;;0.00;0.00;;;;;18.62;62.95;98654.25;5077466;27;45410;-83
2023/10/30 06:18:46;;;;;;;;;0.67;0.00;;;;;18.75;63.00;98670.59;5077492;27;45509;-78
2023/10/30 06:21:18;;;;;;;;;0.67;0.67;;;;;18.75;62.77;98665.31;5076955;27;46127;-81
2023/10/30 06:23:45;;;;;;;;;0.00;0.00;;;;;18.77;62.94;98659.06;5077535;27;45324;-79
2023/10/30 06:26:13;;;;;;;;;0.00;0.00;;;;;18.70;63.32;98670.75;5077581;27;45527;-72
2023/10/30 06:28:40;;;;;;;;;0.00;0.00;;;;;18.64;63.82;98679.75;5077401;27;45338;-72
2023/10/30 06:31:16;;;;;;;;;1.00;1.00;;;;;18.49;64.11;98651.16;5076927;28;45542;-73
2023/10/30 06:33:43;;;;;;;;;1.00;1.00;;;;;18.61;64.35;98671.06;5077003;27;45323;-73
2023/10/30 06:36:09;;;;;;;;;0.00;0.00;;;;;18.58;64.49;98665.84;5077079;27;46257;-73
2023/10/30 06:38:36;;;;;;;;;0.00;0.00;;;;;18.56;64.16;98662.41;5076845;27;45520;-82
2023/10/30 06:41:05;;;;;;;;;0.67;0.67;;;;;18.55;64.11;98652.75;5076195;27;45358;-72
2023/10/30 06:43:32;;;;;;;;;0.00;0.00;;;;;18.46;64.13;98631.00;5074102;28;45627;-71
2023/10/30 06:46:04;;;;;;;;;0.00;0.00;;;;;18.48;64.32;98628.28;5076682;27;46576;-81
2023/10/30 06:48:31;;;;;;;;;0.00;0.00;;;;;18.55;63.95;98634.25;5074257;28;45446;-82
2023/10/30 06:50:58;;;;;;;;;0.00;0.00;;;;;18.52;63.85;98645.75;5077170;27;45456;-84
2023/10/30 06:53:23;;;;;;;;;0.00;0.00;;;;;18.51;63.70;98645.84;5079814;28;45471;-72
2023/10/30 06:55:50;;;;;;;;;1.33;1.00;;;;;18.42;63.86;98634.66;5078517;27;45466;-71
2023/10/30 06:58:17;;;;;;;;;2.00;2.00;;;;;18.53;65.14;98654.59;5079890;27;45508;-81
2023/10/30 07:00:44;;;;;;;;;1.00;1.00;;;;;18.53;64.02;98651.94;5079531;27;46076;-80
2023/10/30 07:03:10;;;;;;;;;2.33;2.00;;;;;18.52;64.49;98666.06;5079717;27;45352;-71
2023/10/30 07:05:36;;;;;;;;;1.00;1.00;;;;;18.53;64.91;98675.75;5080039;27;45493;-71
2023/10/30 07:08:01;;;;;;;;;2.33;2.00;;;;;18.51;64.40;98675.78;5079830;28;45357;-72
2023/10/30 07:10:27;;;;;;;;;0.00;0.00;;;;;18.31;64.60;98641.19;5079455;27;45951;-71
2023/10/30 07:12:53;;;;;;;;;0.00;0.00;;;;;18.56;64.95;98694.13;5079500;28;45524;-71
2023/10/30 07:15:20;;;;;;;;;0.33;0.33;;;;;18.58;64.80;98694.94;5079864;28;45488;-71
2023/10/30 07:17:47;;;;;;;;;0.00;0.00;;;;;18.55;64.63;98697.72;5079764;27;45667;-80
2023/10/30 07:20:13;;;;;;;;;0.67;0.67;;;;;18.61;64.35;98706.28;5079339;27;45484;-82
2023/10/30 07:22:38;;;;;;;;;5.00;5.00;;;;;18.64;64.40;98721.19;5079763;28;45859;-71
2023/10/30 07:25:05;;;;;;;;;3.00;3.00;;;;;18.63;63.60;98733.56;5079545;27;45312;-71
2023/10/30 07:27:31;;;;;;;;;2.67;2.00;;;;;18.65;63.44;98734.38;5079668;27;45412;-71
2023/10/30 07:29:59;;;;;;;;;5.00;4.00;;;;;18.65;62.95;98733.50;5079188;27;45988;-76
2023/10/30 07:32:24;;;;;;;;;2.00;0.00;;;;;18.48;61.87;98705.84;5079199;28;45305;-80
2023/10/30 07:34:50;;;;;;;;;2.67;2.67;;;;;18.72;62.92;98750.94;5079179;27;45391;-84
2023/10/30 07:37:15;;;;;;;;;1.00;0.67;;;;;18.75;62.82;98760.53;5079599;27;45437;-72
2023/10/30 07:39:41;;;;;;;;;0.67;0.00;;;;;18.80;63.05;98762.16;5079288;27;45354;-72
2023/10/30 07:42:06;;;;;;;;;1.00;1.00;;;;;18.66;64.06;98738.75;5079652;27;45517;-80
2023/10/30 07:44:32;;;;;;;;;1.00;1.00;;;;;18.75;63.64;98769.34;5079259;27;45377;-76
2023/10/30 07:46:58;;;;;;;;;1.00;1.00;;;;;18.64;64.34;98769.69;5079843;28;45444;-72
2023/10/30 07:49:24;;;;;;;;;0.00;0.00;;;;;18.68;64.56;98786.28;5079764;27;45865;-71
2023/10/30 07:51:49;;;;;;;;;2.00;2.00;;;;;18.70;64.71;98789.75;5079945;27;45436;-71
2023/10/30 07:54:15;;;;;;;;;2.00;2.00;;;;;18.69;64.13;98788.03;5079570;27;45521;-71
2023/10/30 07:56:40;;;;;;;;;3.00;2.67;;;;;18.42;63.44;98742.16;5080256;28;45384;-78
2023/10/30 07:59:06;;;;;;;;;3.00;2.00;;;;;18.48;63.20;98756.06;5079353;27;46012;-72
2023/10/30 08:01:33;;;;;;;;;1.00;0.00;;;;;18.79;62.98;98808.03;5084004;27;45600;-78
2023/10/30 08:03:59;;;;;;;;;1.67;1.67;;;;;18.60;62.73;98788.31;5084377;27;45569;-71
2023/10/30 08:06:25;;;;;;;;;3.00;1.33;;;;;18.77;62.95;98817.75;5076350;28;45318;-71
2023/10/30 08:08:52;;;;;;;;;1.00;1.00;;;;;18.95;62.83;98845.47;5076776;28;45576;-71
2023/10/30 08:11:18;;;;;;;;;0.00;0.00;;;;;19.02;62.17;98849.66;5078811;27;45462;-71
2023/10/30 08:13:44;;;;;;;;;0.00;0.00;;;;;19.07;61.90;98852.16;5078569;27;45490;-71
2023/10/30 08:16:12;;;;;;;;;0.00;0.00;;;;;19.15;62.00;98871.28;5079016;28;45417;-71
2023/10/30 08:18:39;;;;;;;;;0.00;0.00;;;;;19.20;61.83;98864.09;5078732;28;46106;-79
2023/10/30 08:21:05;;;;;;;;;0.00;0.00;;;;;19.34;61.92;98883.94;5075538;28;45429;-72
2023/10/30 08:23:30;;;;;;;;;0.00;0.00;;;;;19.43;61.77;98889.78;5078594;27;45447;-71
2023/10/30 08:25:56;;;;;;;;;1.67;1.00;;;;;19.43;62.20;98887.16;5078490;27;45448;-81
2023/10/30 08:28:22;;;;;;;;;0.00;0.00;;;;;19.44;62.92;98904.78;5085466;27;45429;-82
2023/10/30 08:30:48;;;;;;;;;0.67;0.00;;;;;19.52;63.00;98915.13;5078763;27;45582;-79
2023/10/30 08:33:13;;;;;;;;;3.00;2.00;;;;;19.48;63.11;98910.84;5078492;28;45392;-72
2023/10/30 08:35:39;;;;;;;;;3.00;1.00;;;;;19.49;63.31;98931.09;5078799;27;45252;-80
2023/10/30 08:38:05;;;;;;;;;0.00;0.00;;;;;19.38;63.24;98936.75;5078022;28;45472;-77
2023/10/30 08:40:30;;;;;;;;;0.00;0.00;;;;;19.37;62.76;98950.03;5078326;28;45219;-71
2023/10/30 08:42:56;;;;;;;;;0.00;0.00;;;;;19.34;63.24;98960.72;5078255;28;45491;-71
2023/10/30 08:45:22;;;;;;;;;0.00;0.00;;;;;19.28;63.20;98964.44;5078175;27;45417;-71
2023/10/30 08:47:48;;;;;;;;;0.00;0.00;;;;;19.22;63.26;98962.84;5078686;27;46158;-78
2023/10/30 08:50:14;;;;;;;;;0.00;0.00;;;;;19.08;63.35;98965.91;5079016;27;45527;-80
2023/10/30 08:52:40;;;;;;;;;0.00;0.00;;;;;19.03;63.41;98974.88;5081141;27;45441;-71
2023/10/30 08:55:07;;;;;;;;;0.00;0.00;;;;;18.80;63.23;98952.63;5080876;27;45540;-81
2023/10/30 08:57:32;;;;;;;;;0.00;0.00;;;;;18.88;63.32;98970.94;5077785;27;46422;-71
2023/10/30 08:59:58;;;;;;;;;1.00;1.00;;;;;18.93;63.56;98973.44;5077692;27;45472;-75
2023/10/30 09:02:24;;;;;;;;;0.00;0.00;;;;;19.00;63.51;98969.69;5077953;27;45407;-70
2023/10/30 09:04:49;;;;;;;;;0.00;0.00;;;;;19.01;62.85;98966.13;5077875;27;45361;-72
2023/10/30 09:07:16;;;;;;;;;0.00;0.00;;;;;18.78;63.13;98942.94;5077304;27;45431;-72
2023/10/30 09:09:42;;;;;;;;;0.00;0.00;;;;;19.06;62.90;98977.47;5078495;27;45261;-78
2023/10/30 09:12:08;;;;;;;;;0.00;0.00;;;;;19.02;62.66;98974.03;5077230;27;45387;-71
2023/10/30 09:14:34;;;;;;;;;0.00;0.00;;;;;19.05;62.64;98981.88;5077107;27;45374;-71
2023/10/30 09:17:00;;;;;;;;;1.00;1.00;;;;;19.02;62.75;98987.25;5077388;28;45397;-80
2023/10/30 09:19:26;;;;;;;;;0.00;0.00;;;;;19.18;62.44;98987.69;5077399;27;46028;-73
2023/10/30 09:21:52;;;;;;;;;0.00;0.00;;;;;19.16;61.68;98984.22;5077185;27;45354;-79
2023/10/30 09:24:17;;;;;;;;;1.00;0.00;;;;;19.18;61.55;98977.09;5077625;27;45246;-72
2023/10/30 09:26:43;;;;;;;;;0.00;0.00;;;;;19.45;61.62;98977.13;5077543;27;45996;-71
2023/10/30 09:29:09;;;;;;;;;1.00;0.33;;;;;19.58;60.81;98975.00;5077261;28;46189;-71
2023/10/30 09:31:34;;;;;;;;;0.00;0.00;;;;;19.66;60.42;98965.88;5078305;27;45247;-71
2023/10/30 09:34:00;;;;;;;;;0.67;0.00;;;;;19.86;59.69;98977.63;5077584;28;45442;-71
2023/10/30 09:36:27;;;;;;;;;1.00;1.00;;;;;19.90;59.99;98984.56;5078053;27;45946;-71
2023/10/30 09:38:53;;;;;;;;;0.00;0.00;;;;;20.05;59.27;98981.41;5077856;27;45492;-71
2023/10/30 09:41:20;;;;;;;;;0.67;0.00;;;;;20.17;59.56;98976.59;5077792;27;45267;-71
2023/10/30 09:43:52;;;;;;;;;0.67;0.00;;;;;20.37;59.54;98973.25;5078024;27;45306;-71
2023/10/30 09:46:22;;;;;;;;;0.00;0.00;;;;;20.55;58.42;98962.00;5077742;27;46136;-71
2023/10/30 09:48:50;;;;;;;;;0.00;0.00;;;;;20.91;57.39;98966.00;5076303;28;45548;-72
2023/10/30 09:51:17;;;;;;;;;0.00;0.00;;;;;21.16;56.14;98944.72;5076518;28;45420;-71
2023/10/30 09:53:44;;;;;;;;;1.00;1.00;;;;;21.38;55.89;98939.41;5076633;28;45520;-71
2023/10/30 09:56:10;;;;;;;;;0.00;0.00;;;;;21.76;54.84;98964.44;5077254;27;46156;-70
2023/10/30 09:58:39;;;;;;;;;0.00;0.00;;;;;21.97;55.26;98975.16;5077143;27;45541;-81
2023/10/30 10:01:05;;;;;;;;;0.00;0.00;;;;;22.39;53.58;98974.28;5077922;28;45512;-73
2023/10/30 10:03:30;;;;;;;;;1.00;0.00;;;;;22.78;54.24;98976.97;5077615;27;45315;-71
2023/10/30 10:05:57;;;;;;;;;0.00;0.00;;;;;23.00;51.17;98952.03;5077375;28;46207;-71
2023/10/30 10:08:24;;;;;;;;;0.00;0.00;;;;;23.58;51.34;98967.91;5077314;27;45628;-70
2023/10/30 10:11:00;;;;;;;;;0.00;0.00;;;;;23.97;50.21;98972.28;5077223;28;45354;-71
2023/10/30 10:13:34;;;;;;;;;0.00;0.00;;;;;24.32;47.83;98972.25;5077366;27;45306;-71
2023/10/30 10:16:02;;;;;;;;;0.00;0.00;;;;;24.22;49.70;98961.19;5077159;28;45389;-71
2023/10/30 10:18:32;;;;;;;;;0.00;0.00;;;;;24.36;50.04;98978.31;5077117;27;45547;-71
2023/10/30 10:20:59;;;;;;;;;0.00;0.00;;;;;24.42;49.52;98976.16;5077472;27;45931;-71
2023/10/30 10:23:26;;;;;;;;;0.00;0.00;;;;;24.39;48.73;98959.44;5077089;27;45306;-72
2023/10/30 10:25:54;;;;;;;;;0.00;0.00;;;;;24.51;48.08;98971.31;5077194;27;46036;-71
2023/10/30 10:28:24;;;;;;;;;0.00;0.00;;;;;24.55;48.13;98967.53;5076814;27;45471;-72
2023/10/30 10:30:51;;;;;;;;;1.33;1.00;;;;;24.32;48.05;98936.72;5076986;28;45397;-73
2023/10/30 10:33:19;;;;;;;;;0.00;0.00;;;;;24.67;47.95;98968.72;5077493;27;45462;-71
2023/10/30 10:35:45;;;;;;;;;0.00;0.00;;;;;24.77;45.78;98969.94;5076681;28;46090;-79
2023/10/30 10:38:11;;;;;;;;;0.00;0.00;;;;;24.46;47.01;98954.69;5076692;27;45531;-72
2023/10/30 10:40:38;;;;;;;;;0.00;0.00;;;;;24.23;46.08;98959.38;5075580;28;45499;-72
2023/10/30 10:43:06;;;;;;;;;0.00;0.00;;;;;24.19;47.41;98974.72;5076784;27;45445;-77
2023/10/30 10:45:32;;;;;;;;;0.00;0.00;;;;;24.27;47.74;98971.63;5076594;27;45441;-73
2023/10/30 10:47:58;;;;;;;;;0.00;0.00;;;;;24.27;47.76;98968.09;5076552;28;45370;-72
2023/10/30 10:50:23;;;;;;;;;0.00;0.00;;;;;24.36;46.54;98968.47;5076696;27;45314;-72
2023/10/30 10:52:53;;;;;;;;;0.00;0.00;;;;;24.46;45.08;98971.53;5077475;28;45469;-72
2023/10/30 10:55:25;;;;;;;;;0.00;0.00;;;;;24.45;47.00;98969.81;5077173;27;46048;-72
2023/10/30 10:58:08;;;;;;;;;0.00;0.00;;;;;24.48;45.71;98963.47;5076566;28;45351;-72
2023/10/30 11:00:40;;;;;;;;;0.33;0.00;;;;;24.42;45.97;98957.50;5076574;28;45510;-72
2023/10/30 11:03:08;;;;;;;;;0.67;0.00;;;;;24.52;46.67;98952.56;5076496;28;45401;-72
2023/10/30 11:05:37;;;;;;;;;0.00;0.00;;;;;24.63;46.02;98972.47;5075268;28;45518;-72
2023/10/30 11:08:32;;;;;;;;;1.33;1.33;;;;;24.26;44.88;98972.56;5076339;27;45495;-72
2023/10/30 11:11:08;;;;;;;;;6.00;5.33;;;;;24.35;46.03;98976.56;5076537;27;45689;-77
2023/10/30 11:13:50;;;;;;;;;1.00;1.00;;;;;24.38;44.95;98982.63;5076652;27;45357;-72
2023/10/30 11:16:26;;;;;;;;;1.00;1.00;;;;;24.30;46.01;98951.94;5076319;27;45210;-80
2023/10/30 11:18:54;;;;;;;;;0.00;0.00;;;;;24.65;46.32;98982.16;5076360;28;45479;-72
2023/10/30 11:21:25;;;;;;;;;0.00;0.00;;;;;24.91;46.30;98985.22;5075471;27;45544;-82
2023/10/30 11:23:59;;;;;;;;;0.00;0.00;;;;;25.07;45.99;98986.13;5076876;27;45176;-81
2023/10/30 11:26:36;;;;;;;;;0.00;0.00;;;;;25.28;46.11;98988.59;5076085;27;46180;-72
2023/10/30 11:29:10;;;;;;;;;0.00;0.00;;;;;24.76;45.96;98989.59;5074833;28;45512;-72
2023/10/30 11:31:55;;;;;;;;;0.00;0.00;;;;;24.33;46.99;99000.69;5076332;27;45453;-72